createdAt,value
2017-10-25T00:00:50.009Z,16.25
2017-10-25T00:01:50.058Z,16.22
2017-10-25T00:02:50.048Z,16.16
2017-10-25T00:03:50.035Z,16.18
2017-10-25T00:04:50.049Z,16.15
2017-10-25T00:05:50.074Z,16.07
2017-10-25T00:06:50.080Z,16.14
2017-10-25T00:07:50.112Z,16.03
2017-10-25T00:08:50.129Z,16.11
2017-10-25T00:09:50.088Z,16.06
2017-10-25T00:10:50.110Z,16.09
2017-10-25T00:11:50.121Z,16.06
2017-10-25T00:12:50.140Z,16.00
2017-10-25T00:13:50.124Z,16.03
2017-10-25T00:14:50.169Z,16.07
2017-10-25T00:15:50.145Z,16.09
2017-10-25T00:16:50.176Z,15.93
2017-10-25T00:17:50.169Z,15.93
2017-10-25T00:18:50.173Z,15.93
2017-10-25T00:19:50.199Z,15.94
2017-10-25T00:20:50.184Z,15.89
2017-10-25T00:21:50.203Z,15.94
2017-10-25T00:22:50.205Z,15.94
2017-10-25T00:23:50.246Z,15.96
2017-10-25T00:24:50.226Z,15.88
2017-10-25T00:25:50.232Z,15.94
2017-10-25T00:26:50.245Z,15.96
2017-10-25T00:27:50.247Z,15.99
2017-10-25T00:28:50.253Z,15.85
2017-10-25T00:29:50.269Z,15.88
2017-10-25T00:30:50.293Z,15.94
2017-10-25T00:31:50.301Z,15.84
2017-10-25T00:32:50.289Z,15.89
2017-10-25T00:33:50.316Z,15.82
2017-10-25T00:34:50.331Z,15.86
2017-10-25T00:35:50.330Z,15.85
2017-10-25T00:36:50.337Z,15.84
2017-10-25T00:37:50.347Z,15.79
2017-10-25T00:38:50.375Z,15.82
2017-10-25T00:39:50.386Z,15.78
2017-10-25T00:40:50.396Z,15.75
2017-10-25T00:41:50.414Z,15.76
2017-10-25T00:42:50.385Z,15.81
2017-10-25T00:43:50.380Z,15.72
2017-10-25T00:44:50.403Z,15.72
2017-10-25T00:45:50.430Z,15.76
2017-10-25T00:46:50.432Z,15.78
2017-10-25T00:47:50.419Z,15.78
2017-10-25T00:48:50.423Z,15.76
2017-10-25T00:49:50.447Z,15.74
2017-10-25T00:50:50.485Z,15.78
2017-10-25T00:51:50.525Z,15.74
2017-10-25T00:52:50.488Z,15.84
2017-10-25T00:53:50.493Z,15.81
2017-10-25T00:54:50.481Z,15.81
2017-10-25T00:55:50.487Z,15.78
2017-10-25T00:56:50.513Z,15.70
2017-10-25T00:57:50.538Z,15.68
2017-10-25T00:58:50.526Z,15.64
2017-10-25T00:59:50.555Z,15.64
2017-10-25T01:00:50.551Z,15.54
2017-10-25T01:01:50.549Z,15.63
2017-10-25T01:02:50.582Z,15.64
2017-10-25T01:03:50.570Z,15.64
2017-10-25T01:04:50.607Z,15.60
2017-10-25T01:05:50.607Z,15.60
2017-10-25T01:06:50.604Z,15.59
2017-10-25T01:07:50.617Z,15.51
2017-10-25T01:08:50.620Z,15.63
2017-10-25T01:09:50.642Z,15.57
2017-10-25T01:10:50.614Z,15.59
2017-10-25T01:11:50.651Z,15.63
2017-10-25T01:12:50.670Z,15.54
2017-10-25T01:13:50.683Z,15.52
2017-10-25T01:14:50.661Z,15.52
2017-10-25T01:15:50.695Z,15.56
2017-10-25T01:16:50.676Z,15.51
2017-10-25T01:17:50.697Z,15.46
2017-10-25T01:18:50.698Z,15.56
2017-10-25T01:19:50.723Z,15.54
2017-10-25T01:20:50.739Z,15.51
2017-10-25T01:21:50.709Z,15.51
2017-10-25T01:22:50.724Z,15.46
2017-10-25T01:23:50.730Z,15.51
2017-10-25T01:24:50.785Z,15.59
2017-10-25T01:25:50.755Z,15.56
2017-10-25T01:26:50.760Z,15.51
2017-10-25T01:27:50.795Z,15.54
2017-10-25T01:28:50.794Z,15.60
2017-10-25T01:29:50.804Z,15.59
2017-10-25T01:30:50.785Z,15.57
2017-10-25T01:31:50.846Z,15.54
2017-10-25T01:32:50.789Z,15.56
2017-10-25T01:33:50.816Z,15.63
2017-10-25T01:34:50.852Z,15.59
2017-10-25T01:35:50.846Z,15.59
2017-10-25T01:36:50.864Z,15.54
2017-10-25T01:37:50.851Z,15.70
2017-10-25T01:38:50.852Z,15.68
2017-10-25T01:39:50.889Z,15.67
2017-10-25T01:40:50.888Z,15.63
2017-10-25T01:41:50.891Z,15.61
2017-10-25T01:42:50.889Z,15.70
2017-10-25T01:43:50.915Z,15.78
2017-10-25T01:44:50.910Z,15.75
2017-10-25T01:45:50.950Z,15.79
2017-10-25T01:46:50.973Z,15.79
2017-10-25T01:47:50.930Z,15.81
2017-10-25T01:48:50.958Z,15.86
2017-10-25T01:49:50.965Z,15.68
2017-10-25T01:50:50.951Z,15.72
2017-10-25T01:51:50.978Z,15.84
2017-10-25T01:52:50.978Z,15.85
2017-10-25T01:53:51.033Z,15.82
2017-10-25T01:54:50.983Z,15.84
2017-10-25T01:55:51.002Z,15.79
2017-10-25T01:56:51.002Z,15.85
2017-10-25T01:57:51.069Z,15.86
2017-10-25T01:58:51.020Z,15.85
2017-10-25T01:59:51.047Z,15.93
2017-10-25T02:00:51.049Z,15.96
2017-10-25T02:01:51.070Z,15.96
2017-10-25T02:02:51.129Z,15.92
2017-10-25T02:03:51.062Z,15.85
2017-10-25T02:04:51.077Z,15.92
2017-10-25T02:05:51.113Z,15.92
2017-10-25T02:06:51.107Z,15.85
2017-10-25T02:07:51.126Z,15.97
2017-10-25T02:08:51.115Z,15.88
2017-10-25T02:09:51.128Z,16.01
2017-10-25T02:10:51.150Z,15.92
2017-10-25T02:11:51.164Z,16.04
2017-10-25T02:12:51.171Z,15.94
2017-10-25T02:13:51.184Z,15.99
2017-10-25T02:14:51.173Z,15.93
2017-10-25T02:15:51.170Z,16.01
2017-10-25T02:16:51.206Z,15.96
2017-10-25T02:17:51.238Z,15.97
2017-10-25T02:18:51.231Z,15.94
2017-10-25T02:19:51.240Z,15.97
2017-10-25T02:20:51.272Z,15.89
2017-10-25T02:21:51.275Z,15.89
2017-10-25T02:22:51.268Z,15.93
2017-10-25T02:23:51.264Z,16.00
2017-10-25T02:24:51.296Z,15.97
2017-10-25T02:25:51.277Z,15.93
2017-10-25T02:26:51.282Z,16.01
2017-10-25T02:27:51.331Z,15.99
2017-10-25T02:28:51.353Z,15.96
2017-10-25T02:29:51.299Z,15.96
2017-10-25T02:30:51.329Z,15.93
2017-10-25T02:31:51.362Z,16.06
2017-10-25T02:32:51.353Z,16.09
2017-10-25T02:33:51.336Z,15.99
2017-10-25T02:34:51.342Z,16.04
2017-10-25T02:35:51.355Z,16.06
2017-10-25T02:36:51.389Z,16.07
2017-10-25T02:37:51.371Z,16.11
2017-10-25T02:38:51.393Z,16.09
2017-10-25T02:39:51.399Z,16.12
2017-10-25T02:40:51.395Z,16.07
2017-10-25T02:41:51.403Z,16.07
2017-10-25T02:42:51.415Z,16.14
2017-10-25T02:43:51.461Z,16.09
2017-10-25T02:44:51.475Z,16.12
2017-10-25T02:45:51.437Z,16.14
2017-10-25T02:46:51.464Z,16.20
2017-10-25T02:47:51.486Z,16.11
2017-10-25T02:48:51.471Z,16.06
2017-10-25T02:49:51.504Z,16.09
2017-10-25T02:50:51.519Z,16.09
2017-10-25T02:51:51.489Z,16.09
2017-10-25T02:52:51.509Z,16.07
2017-10-25T02:53:51.538Z,16.15
2017-10-25T02:54:51.529Z,16.11
2017-10-25T02:55:51.527Z,16.15
2017-10-25T02:56:51.544Z,16.14
2017-10-25T02:57:51.578Z,16.07
2017-10-25T02:58:51.556Z,16.09
2017-10-25T02:59:51.559Z,16.14
2017-10-25T03:00:51.579Z,16.15
2017-10-25T03:01:51.591Z,16.12
2017-10-25T03:02:51.595Z,16.20
2017-10-25T03:03:51.624Z,16.12
2017-10-25T03:04:51.600Z,16.14
2017-10-25T03:05:51.638Z,16.16
2017-10-25T03:06:51.647Z,16.18
2017-10-25T03:07:51.636Z,16.14
2017-10-25T03:08:51.646Z,16.20
2017-10-25T03:09:51.681Z,16.15
2017-10-25T03:10:51.667Z,16.11
2017-10-25T03:11:51.711Z,16.20
2017-10-25T03:12:51.698Z,16.14
2017-10-25T03:13:51.733Z,16.20
2017-10-25T03:14:51.712Z,16.11
2017-10-25T03:15:51.706Z,16.20
2017-10-25T03:16:51.727Z,16.23
2017-10-25T03:17:51.726Z,16.18
2017-10-25T03:18:51.754Z,16.20
2017-10-25T03:19:51.743Z,16.20
2017-10-25T03:20:51.794Z,16.18
2017-10-25T03:21:51.764Z,16.16
2017-10-25T03:22:51.789Z,16.18
2017-10-25T03:23:51.800Z,16.25
2017-10-25T03:24:51.826Z,16.22
2017-10-25T03:25:51.796Z,16.20
2017-10-25T03:26:51.858Z,16.16
2017-10-25T03:27:51.849Z,16.14
2017-10-25T03:28:51.817Z,16.16
2017-10-25T03:29:51.834Z,16.04
2017-10-25T03:30:51.867Z,16.12
2017-10-25T03:31:51.862Z,16.07
2017-10-25T03:32:51.873Z,15.93
2017-10-25T03:33:51.890Z,16.04
2017-10-25T03:34:51.891Z,15.96
2017-10-25T03:35:51.899Z,16.07
2017-10-25T03:36:51.912Z,16.06
2017-10-25T03:37:51.927Z,15.96
2017-10-25T03:38:51.922Z,15.93
2017-10-25T03:39:51.917Z,15.94
2017-10-25T03:40:51.932Z,15.86
2017-10-25T03:41:51.947Z,15.86
2017-10-25T03:42:51.966Z,15.82
2017-10-25T03:43:51.968Z,15.72
2017-10-25T03:44:52.001Z,15.81
2017-10-25T03:45:52.001Z,15.72
2017-10-25T03:46:52.003Z,15.72
2017-10-25T03:47:51.997Z,15.72
2017-10-25T03:48:52.006Z,15.74
2017-10-25T03:49:52.014Z,15.64
2017-10-25T03:50:52.015Z,15.66
2017-10-25T03:51:52.048Z,15.74
2017-10-25T03:52:52.064Z,15.57
2017-10-25T03:53:52.075Z,15.52
2017-10-25T03:54:52.065Z,15.54
2017-10-25T03:55:52.104Z,15.48
2017-10-25T03:56:52.066Z,15.45
2017-10-25T03:57:52.098Z,15.38
2017-10-25T03:58:52.121Z,15.35
2017-10-25T03:59:52.095Z,15.30
2017-10-25T04:00:52.112Z,15.17
2017-10-25T04:01:52.117Z,15.17
2017-10-25T04:02:52.132Z,15.17
2017-10-25T04:03:52.146Z,15.08
2017-10-25T04:04:52.137Z,15.03
2017-10-25T04:05:52.177Z,14.98
2017-10-25T04:06:52.165Z,14.95
2017-10-25T04:07:52.180Z,14.93
2017-10-25T04:08:52.204Z,14.88
2017-10-25T04:09:52.193Z,14.94
2017-10-25T04:10:52.200Z,14.87
2017-10-25T04:11:52.192Z,14.91
2017-10-25T04:12:52.200Z,14.87
2017-10-25T04:13:52.226Z,14.93
2017-10-25T04:14:52.212Z,14.84
2017-10-25T04:15:52.267Z,14.78
2017-10-25T04:16:52.257Z,14.74
2017-10-25T04:17:52.236Z,14.71
2017-10-25T04:18:52.249Z,14.65
2017-10-25T04:19:52.267Z,14.62
2017-10-25T04:20:52.273Z,14.61
2017-10-25T04:21:52.288Z,14.52
2017-10-25T04:22:52.288Z,14.56
2017-10-25T04:23:52.309Z,14.54
2017-10-25T04:24:52.296Z,14.50
2017-10-25T04:25:52.325Z,14.54
2017-10-25T04:26:52.321Z,14.50
2017-10-25T04:27:52.325Z,14.47
2017-10-25T04:28:52.334Z,14.50
2017-10-25T04:29:52.360Z,14.43
2017-10-25T04:30:52.348Z,14.50
2017-10-25T04:31:52.383Z,14.44
2017-10-25T04:32:52.387Z,14.44
2017-10-25T04:33:52.362Z,14.43
2017-10-25T04:34:52.380Z,14.38
2017-10-25T04:35:52.423Z,14.35
2017-10-25T04:36:52.390Z,14.35
2017-10-25T04:37:52.413Z,14.38
2017-10-25T04:38:52.437Z,14.39
2017-10-25T04:39:52.405Z,14.42
2017-10-25T04:40:52.433Z,14.46
2017-10-25T04:41:52.444Z,14.42
2017-10-25T04:42:52.435Z,14.42
2017-10-25T04:43:52.436Z,14.35
2017-10-25T04:44:52.481Z,14.43
2017-10-25T04:45:52.482Z,14.38
2017-10-25T04:46:52.474Z,14.43
2017-10-25T04:47:52.492Z,14.39
2017-10-25T04:48:52.503Z,14.42
2017-10-25T04:49:52.497Z,14.42
2017-10-25T04:50:52.531Z,14.32
2017-10-25T04:51:52.525Z,14.29
2017-10-25T04:52:52.515Z,14.31
2017-10-25T04:53:52.558Z,14.42
2017-10-25T04:54:52.561Z,14.44
2017-10-25T04:55:52.550Z,14.32
2017-10-25T04:56:52.545Z,14.39
2017-10-25T04:57:52.548Z,14.39
2017-10-25T04:58:52.568Z,14.43
2017-10-25T04:59:52.598Z,14.38
2017-10-25T05:00:52.617Z,14.37
2017-10-25T05:01:52.605Z,14.47
2017-10-25T05:02:52.621Z,14.50
2017-10-25T05:03:52.594Z,14.50
2017-10-25T05:04:52.612Z,14.44
2017-10-25T05:05:52.634Z,14.47
2017-10-25T05:06:52.633Z,14.38
2017-10-25T05:07:52.670Z,14.37
2017-10-25T05:08:52.673Z,14.39
2017-10-25T05:09:52.689Z,14.43
2017-10-25T05:10:52.684Z,14.34
2017-10-25T05:11:52.692Z,14.31
2017-10-25T05:12:52.684Z,14.35
2017-10-25T05:13:52.737Z,14.32
2017-10-25T05:14:52.690Z,14.31
2017-10-25T05:15:52.733Z,14.32
2017-10-25T05:16:52.742Z,14.34
2017-10-25T05:17:52.725Z,14.37
2017-10-25T05:18:52.747Z,14.34
2017-10-25T05:19:52.783Z,14.31
2017-10-25T05:20:52.799Z,14.37
2017-10-25T05:21:52.806Z,14.29
2017-10-25T05:22:52.816Z,14.34
2017-10-25T05:23:52.825Z,14.21
2017-10-25T05:24:52.822Z,14.25
2017-10-25T05:25:52.815Z,14.27
2017-10-25T05:26:52.788Z,14.34
2017-10-25T05:27:52.804Z,14.32
2017-10-25T05:28:52.795Z,14.43
2017-10-25T05:29:52.806Z,14.35
2017-10-25T05:30:52.827Z,14.29
2017-10-25T05:31:52.825Z,14.31
2017-10-25T05:32:52.853Z,14.39
2017-10-25T05:33:52.830Z,14.32
2017-10-25T05:34:52.872Z,14.27
2017-10-25T05:35:52.855Z,14.31
2017-10-25T05:36:52.885Z,14.31
2017-10-25T05:37:52.889Z,14.32
2017-10-25T05:38:52.878Z,14.31
2017-10-25T05:39:52.916Z,14.37
2017-10-25T05:40:52.896Z,14.27
2017-10-25T05:41:52.899Z,14.28
2017-10-25T05:42:52.913Z,14.43
2017-10-25T05:43:52.921Z,14.38
2017-10-25T05:44:52.919Z,14.35
2017-10-25T05:45:52.959Z,14.39
2017-10-25T05:46:52.974Z,14.42
2017-10-25T05:47:52.971Z,14.43
2017-10-25T05:48:52.980Z,14.43
2017-10-25T05:49:52.959Z,14.25
2017-10-25T05:50:52.979Z,14.31
2017-10-25T05:51:52.985Z,14.34
2017-10-25T05:52:52.999Z,14.37
2017-10-25T05:53:53.018Z,14.35
2017-10-25T05:54:53.011Z,14.34
2017-10-25T05:55:53.051Z,14.31
2017-10-25T05:56:53.015Z,14.32
2017-10-25T05:57:53.038Z,14.32
2017-10-25T05:58:53.029Z,14.32
2017-10-25T05:59:53.065Z,14.31
2017-10-25T06:00:53.054Z,14.34
2017-10-25T06:01:53.065Z,14.43
2017-10-25T06:02:53.078Z,14.31
2017-10-25T06:03:53.105Z,14.31
2017-10-25T06:04:53.092Z,14.31
2017-10-25T06:05:53.104Z,14.32
2017-10-25T06:06:53.118Z,14.31
2017-10-25T06:07:53.134Z,14.31
2017-10-25T06:08:53.122Z,14.29
2017-10-25T06:09:53.169Z,14.42
2017-10-25T06:10:53.136Z,14.42
2017-10-25T06:11:53.138Z,14.39
2017-10-25T06:12:53.160Z,14.32
2017-10-25T06:13:53.153Z,14.32
2017-10-25T06:14:53.169Z,14.32
2017-10-25T06:15:53.162Z,14.44
2017-10-25T06:16:53.188Z,14.35
2017-10-25T06:17:53.220Z,14.32
2017-10-25T06:18:53.188Z,14.34
2017-10-25T06:19:53.210Z,14.42
2017-10-25T06:20:53.209Z,14.43
2017-10-25T06:21:53.241Z,14.38
2017-10-25T06:22:53.236Z,14.39
2017-10-25T06:23:53.240Z,14.39
2017-10-25T06:24:53.234Z,14.43
2017-10-25T06:25:53.254Z,14.44
2017-10-25T06:26:53.267Z,14.43
2017-10-25T06:27:53.274Z,14.38
2017-10-25T06:28:53.272Z,14.32
2017-10-25T06:29:53.266Z,14.31
2017-10-25T06:30:53.289Z,14.28
2017-10-25T06:31:53.335Z,14.28
2017-10-25T06:32:53.312Z,14.27
2017-10-25T06:33:53.314Z,14.34
2017-10-25T06:34:53.316Z,14.31
2017-10-25T06:35:53.321Z,14.35
2017-10-25T06:36:53.337Z,14.31
2017-10-25T06:37:53.338Z,14.31
2017-10-25T06:38:53.346Z,14.32
2017-10-25T06:39:53.390Z,14.32
2017-10-25T06:40:53.390Z,14.32
2017-10-25T06:41:53.372Z,14.29
2017-10-25T06:42:53.404Z,14.42
2017-10-25T06:43:53.375Z,14.42
2017-10-25T06:44:53.412Z,14.34
2017-10-25T06:45:53.423Z,14.39
2017-10-25T06:46:53.442Z,14.42
2017-10-25T06:47:53.420Z,14.44
2017-10-25T06:48:53.444Z,14.34
2017-10-25T06:49:53.447Z,14.35
2017-10-25T06:50:53.467Z,14.42
2017-10-25T06:51:53.458Z,14.38
2017-10-25T06:52:53.495Z,14.43
2017-10-25T06:53:53.468Z,14.47
2017-10-25T06:54:53.489Z,14.44
2017-10-25T06:55:53.495Z,14.46
2017-10-25T06:56:53.544Z,14.47
2017-10-25T06:57:53.500Z,14.52
2017-10-25T06:58:53.532Z,14.50
2017-10-25T06:59:53.549Z,14.60
2017-10-25T07:00:53.509Z,14.56
2017-10-25T07:01:53.535Z,14.56
2017-10-25T07:02:53.608Z,14.56
2017-10-25T07:03:53.553Z,14.60
2017-10-25T07:04:53.563Z,14.60
2017-10-25T07:05:53.560Z,14.53
2017-10-25T07:06:53.567Z,14.67
2017-10-25T07:07:53.575Z,14.68
2017-10-25T07:08:53.605Z,14.62
2017-10-25T07:09:53.577Z,14.61
2017-10-25T07:10:53.603Z,14.65
2017-10-25T07:11:53.637Z,14.64
2017-10-25T07:12:53.612Z,14.65
2017-10-25T07:13:53.638Z,14.71
2017-10-25T07:14:53.649Z,14.64
2017-10-25T07:15:53.637Z,14.71
2017-10-25T07:16:53.693Z,14.74
2017-10-25T07:17:53.672Z,14.83
2017-10-25T07:18:53.692Z,14.86
2017-10-25T07:19:53.677Z,14.90
2017-10-25T07:20:53.692Z,14.88
2017-10-25T07:21:53.685Z,14.87
2017-10-25T07:22:53.705Z,14.95
2017-10-25T07:23:53.727Z,14.93
2017-10-25T07:24:53.732Z,14.98
2017-10-25T07:25:53.721Z,14.99
2017-10-25T07:26:53.727Z,15.09
2017-10-25T07:27:53.758Z,15.09
2017-10-25T07:28:53.745Z,15.06
2017-10-25T07:29:53.753Z,15.05
2017-10-25T07:30:53.764Z,15.08
2017-10-25T07:31:53.769Z,15.19
2017-10-25T07:32:53.777Z,15.17
2017-10-25T07:33:53.815Z,15.26
2017-10-25T07:34:53.797Z,15.21
2017-10-25T07:35:53.847Z,15.30
2017-10-25T07:36:53.800Z,15.33
2017-10-25T07:37:53.824Z,15.36
2017-10-25T07:38:53.842Z,15.38
2017-10-25T07:39:53.850Z,15.39
2017-10-25T07:40:53.863Z,15.54
2017-10-25T07:41:53.854Z,15.46
2017-10-25T07:42:53.873Z,15.59
2017-10-25T07:43:53.891Z,15.63
2017-10-25T07:44:53.911Z,15.51
2017-10-25T07:45:53.929Z,15.56
2017-10-25T07:46:53.921Z,15.66
2017-10-25T07:47:53.909Z,15.66
2017-10-25T07:48:53.926Z,15.66
2017-10-25T07:49:53.970Z,15.72
2017-10-25T07:50:53.930Z,15.86
2017-10-25T07:51:53.938Z,15.74
2017-10-25T07:52:53.941Z,15.81
2017-10-25T07:53:53.955Z,15.86
2017-10-25T07:54:53.977Z,15.92
2017-10-25T07:55:53.973Z,15.93
2017-10-25T07:56:54.003Z,16.07
2017-10-25T07:57:54.004Z,16.09
2017-10-25T07:58:54.007Z,16.12
2017-10-25T07:59:54.015Z,16.18
2017-10-25T08:00:54.024Z,16.18
2017-10-25T08:01:54.068Z,16.16
2017-10-25T08:02:54.040Z,16.22
2017-10-25T08:03:54.058Z,16.23
2017-10-25T08:04:54.055Z,16.25
2017-10-25T08:05:54.085Z,16.26
2017-10-25T08:06:54.082Z,16.26
2017-10-25T08:07:54.087Z,16.34
2017-10-25T08:08:54.106Z,16.31
2017-10-25T08:09:54.108Z,16.27
2017-10-25T08:10:54.114Z,16.30
2017-10-25T08:11:54.142Z,16.44
2017-10-25T08:12:54.134Z,16.37
2017-10-25T08:13:54.153Z,16.44
2017-10-25T08:14:54.156Z,16.48
2017-10-25T08:15:54.149Z,16.42
2017-10-25T08:16:54.174Z,16.48
2017-10-25T08:17:54.190Z,16.50
2017-10-25T08:18:54.219Z,16.58
2017-10-25T08:19:54.208Z,16.55
2017-10-25T08:20:54.220Z,16.63
2017-10-25T08:21:54.248Z,16.60
2017-10-25T08:22:54.232Z,16.65
2017-10-25T08:23:54.242Z,16.65
2017-10-25T08:24:54.244Z,16.71
2017-10-25T08:25:54.296Z,16.65
2017-10-25T08:26:54.264Z,16.73
2017-10-25T08:27:54.275Z,16.77
2017-10-25T08:28:54.310Z,16.70
2017-10-25T08:29:54.328Z,16.73
2017-10-25T08:30:54.319Z,16.73
2017-10-25T08:31:54.323Z,16.88
2017-10-25T08:32:54.324Z,16.80
2017-10-25T08:33:54.350Z,16.92
2017-10-25T08:34:54.355Z,16.96
2017-10-25T08:35:54.381Z,16.95
2017-10-25T08:36:54.372Z,16.99
2017-10-25T08:37:54.381Z,16.96
2017-10-25T08:38:54.368Z,16.98
2017-10-25T08:39:54.420Z,16.96
2017-10-25T08:40:54.395Z,17.00
2017-10-25T08:41:54.429Z,17.04
2017-10-25T08:42:54.453Z,17.06
2017-10-25T08:43:54.422Z,17.13
2017-10-25T08:44:54.470Z,17.17
2017-10-25T08:45:54.461Z,17.08
2017-10-25T08:46:54.456Z,17.15
2017-10-25T08:47:54.461Z,17.10
2017-10-25T08:48:54.463Z,17.14
2017-10-25T08:49:54.521Z,17.07
2017-10-25T08:50:54.513Z,17.13
2017-10-25T08:51:54.497Z,17.22
2017-10-25T08:52:54.520Z,17.28
2017-10-25T08:53:54.533Z,17.26
2017-10-25T08:54:54.558Z,17.28
2017-10-25T08:55:54.528Z,17.30
2017-10-25T08:56:54.606Z,17.33
2017-10-25T08:57:54.575Z,17.36
2017-10-25T08:58:54.564Z,17.36
2017-10-25T08:59:54.618Z,17.40
2017-10-25T09:00:54.602Z,17.48
2017-10-25T09:01:54.635Z,17.47
2017-10-25T09:02:54.612Z,17.46
2017-10-25T09:03:54.628Z,17.57
2017-10-25T09:04:54.634Z,17.53
2017-10-25T09:05:54.665Z,17.50
2017-10-25T09:06:54.646Z,17.51
2017-10-25T09:07:54.665Z,17.51
2017-10-25T09:08:54.703Z,17.53
2017-10-25T09:09:54.687Z,17.57
2017-10-25T09:10:54.693Z,17.53
2017-10-25T09:11:54.744Z,17.50
2017-10-25T09:12:54.699Z,17.55
2017-10-25T09:13:54.713Z,17.73
2017-10-25T09:14:54.747Z,17.69
2017-10-25T09:15:54.742Z,17.71
2017-10-25T09:16:54.740Z,17.73
2017-10-25T09:17:54.763Z,17.78
2017-10-25T09:18:54.769Z,17.74
2017-10-25T09:19:54.815Z,17.73
2017-10-25T09:20:54.808Z,17.78
2017-10-25T09:21:54.789Z,17.79
2017-10-25T09:22:54.820Z,17.74
2017-10-25T09:23:54.843Z,17.79
2017-10-25T09:24:54.830Z,17.84
2017-10-25T09:25:54.853Z,17.85
2017-10-25T09:26:54.861Z,17.88
2017-10-25T09:27:54.866Z,17.92
2017-10-25T09:28:54.882Z,17.87
2017-10-25T09:29:54.909Z,17.88
2017-10-25T09:30:54.902Z,17.89
2017-10-25T09:31:54.885Z,17.95
2017-10-25T09:32:54.908Z,17.99
2017-10-25T09:33:54.909Z,17.84
2017-10-25T09:34:54.934Z,17.87
2017-10-25T09:35:54.946Z,17.95
2017-10-25T09:36:54.980Z,17.88
2017-10-25T09:37:54.975Z,17.88
2017-10-25T09:38:54.962Z,17.92
2017-10-25T09:39:54.978Z,17.97
2017-10-25T09:40:55.009Z,17.89
2017-10-25T09:41:55.003Z,18.07
2017-10-25T09:42:55.022Z,17.99
2017-10-25T09:43:55.031Z,17.97
2017-10-25T09:44:55.057Z,18.03
2017-10-25T09:45:55.047Z,18.07
2017-10-25T09:46:55.060Z,17.94
2017-10-25T09:47:55.097Z,18.03
2017-10-25T09:48:55.081Z,17.91
2017-10-25T09:49:55.090Z,18.00
2017-10-25T09:50:55.088Z,17.94
2017-10-25T09:51:55.098Z,18.04
2017-10-25T09:52:55.113Z,18.07
2017-10-25T09:53:55.136Z,17.92
2017-10-25T09:54:55.131Z,17.97
2017-10-25T09:55:55.178Z,18.03
2017-10-25T09:56:55.142Z,18.03
2017-10-25T09:57:55.166Z,18.04
2017-10-25T09:58:55.183Z,18.06
2017-10-25T09:59:55.200Z,18.07
2017-10-25T10:00:55.184Z,18.02
2017-10-25T10:01:55.229Z,18.10
2017-10-25T10:02:55.205Z,18.18
2017-10-25T10:03:55.218Z,18.15
2017-10-25T10:04:55.237Z,18.21
2017-10-25T10:05:55.254Z,18.29
2017-10-25T10:06:55.241Z,18.21
2017-10-25T10:07:55.267Z,18.22
2017-10-25T10:08:55.273Z,18.24
2017-10-25T10:09:55.279Z,18.19
2017-10-25T10:10:55.292Z,18.25
2017-10-25T10:11:55.299Z,18.25
2017-10-25T10:12:55.313Z,18.29
2017-10-25T10:13:55.319Z,18.27
2017-10-25T10:14:55.325Z,18.40
2017-10-25T10:15:55.356Z,18.37
2017-10-25T10:16:55.358Z,18.36
2017-10-25T10:17:55.391Z,18.39
2017-10-25T10:18:55.393Z,18.37
2017-10-25T10:19:55.385Z,18.37
2017-10-25T10:20:55.417Z,18.40
2017-10-25T10:21:55.425Z,18.40
2017-10-25T10:22:55.415Z,18.34
2017-10-25T10:23:55.425Z,18.34
2017-10-25T10:24:55.463Z,18.33
2017-10-25T10:25:55.459Z,18.22
2017-10-25T10:26:55.445Z,18.28
2017-10-25T10:27:55.488Z,18.31
2017-10-25T10:28:55.494Z,18.28
2017-10-25T10:29:55.545Z,18.28
2017-10-25T10:30:55.505Z,18.31
2017-10-25T10:31:55.526Z,18.28
2017-10-25T10:32:55.520Z,18.28
2017-10-25T10:33:55.539Z,18.29
2017-10-25T10:34:55.530Z,18.25
2017-10-25T10:35:55.588Z,18.29
2017-10-25T10:36:55.552Z,18.29
2017-10-25T10:37:55.615Z,18.36
2017-10-25T10:38:55.609Z,18.40
2017-10-25T10:39:55.588Z,18.47
2017-10-25T10:40:55.646Z,18.49
2017-10-25T10:41:55.609Z,18.46
2017-10-25T10:42:55.627Z,18.61
2017-10-25T10:43:55.644Z,18.47
2017-10-25T10:44:55.639Z,18.46
2017-10-25T10:45:55.673Z,18.47
2017-10-25T10:46:55.681Z,18.44
2017-10-25T10:47:55.680Z,18.47
2017-10-25T10:48:55.703Z,18.40
2017-10-25T10:49:55.705Z,18.50
2017-10-25T10:50:55.718Z,18.55
2017-10-25T10:51:55.719Z,18.54
2017-10-25T10:52:55.735Z,18.50
2017-10-25T10:53:55.726Z,18.52
2017-10-25T10:54:55.756Z,18.55
2017-10-25T10:55:55.783Z,18.62
2017-10-25T10:56:55.781Z,18.62
2017-10-25T10:57:55.819Z,18.49
2017-10-25T10:58:55.783Z,18.52
2017-10-25T10:59:55.801Z,18.68
2017-10-25T11:00:55.841Z,18.61
2017-10-25T11:01:55.825Z,18.61
2017-10-25T11:02:55.884Z,18.55
2017-10-25T11:03:55.849Z,18.74
2017-10-25T11:04:55.860Z,18.68
2017-10-25T11:05:55.859Z,18.83
2017-10-25T11:06:55.889Z,18.83
2017-10-25T11:07:55.877Z,18.91
2017-10-25T11:08:55.916Z,18.97
2017-10-25T11:09:55.901Z,19.02
2017-10-25T11:10:55.941Z,19.15
2017-10-25T11:11:55.954Z,19.14
2017-10-25T11:12:55.986Z,19.13
2017-10-25T11:13:55.966Z,19.18
2017-10-25T11:14:55.965Z,19.18
2017-10-25T11:15:55.961Z,19.13
2017-10-25T11:16:55.994Z,19.14
2017-10-25T11:17:56.006Z,18.97
2017-10-25T11:18:56.011Z,19.10
2017-10-25T11:19:56.020Z,19.08
2017-10-25T11:20:56.037Z,19.17
2017-10-25T11:21:56.062Z,19.21
2017-10-25T11:22:56.088Z,19.17
2017-10-25T11:23:56.064Z,19.25
2017-10-25T11:24:56.061Z,19.25
2017-10-25T11:25:56.125Z,19.29
2017-10-25T11:26:56.117Z,19.39
2017-10-25T11:27:56.114Z,19.31
2017-10-25T11:28:56.125Z,19.23
2017-10-25T11:29:56.122Z,19.20
2017-10-25T11:30:56.171Z,19.23
2017-10-25T11:31:56.144Z,19.33
2017-10-25T11:32:56.185Z,19.29
2017-10-25T11:33:56.206Z,19.29
2017-10-25T11:34:56.188Z,19.35
2017-10-25T11:35:56.204Z,19.29
2017-10-25T11:36:56.199Z,19.28
2017-10-25T11:37:56.226Z,19.29
2017-10-25T11:38:56.238Z,19.33
2017-10-25T11:39:56.231Z,19.28
2017-10-25T11:40:56.255Z,19.32
2017-10-25T11:41:56.295Z,19.33
2017-10-25T11:42:56.269Z,19.25
2017-10-25T11:43:56.285Z,19.35
2017-10-25T11:44:56.318Z,19.35
2017-10-25T11:45:56.298Z,19.36
2017-10-25T11:46:56.329Z,19.40
2017-10-25T11:47:56.337Z,19.38
2017-10-25T11:48:56.375Z,19.33
2017-10-25T11:49:56.381Z,19.42
2017-10-25T11:50:56.366Z,19.43
2017-10-25T11:51:56.394Z,19.42
2017-10-25T11:52:56.386Z,19.46
2017-10-25T11:53:56.393Z,19.40
2017-10-25T11:54:56.411Z,19.53
2017-10-25T11:55:56.404Z,19.43
2017-10-25T11:56:56.471Z,19.66
2017-10-25T11:57:56.470Z,19.60
2017-10-25T11:58:56.443Z,19.61
2017-10-25T11:59:56.470Z,19.65
2017-10-25T12:00:56.467Z,19.63
2017-10-25T12:01:56.504Z,19.69
2017-10-25T12:02:56.481Z,19.60
2017-10-25T12:03:56.532Z,19.66
2017-10-25T12:04:56.515Z,19.68
2017-10-25T12:05:56.538Z,19.63
2017-10-25T12:06:56.538Z,19.70
2017-10-25T12:07:56.542Z,19.69
2017-10-25T12:08:56.566Z,19.66
2017-10-25T12:09:56.590Z,19.70
2017-10-25T12:10:56.595Z,19.72
2017-10-25T12:11:56.627Z,19.72
2017-10-25T12:12:56.614Z,19.75
2017-10-25T12:13:56.638Z,19.73
2017-10-25T12:14:56.630Z,19.68
2017-10-25T12:15:56.645Z,19.50
2017-10-25T12:16:56.666Z,19.47
2017-10-25T12:17:56.656Z,19.38
2017-10-25T12:18:56.702Z,19.35
2017-10-25T12:19:56.691Z,19.50
2017-10-25T12:20:56.698Z,19.40
2017-10-25T12:21:56.713Z,19.51
2017-10-25T12:22:56.710Z,19.48
2017-10-25T12:23:56.725Z,19.65
2017-10-25T12:24:56.737Z,19.68
2017-10-25T12:25:56.760Z,19.72
2017-10-25T12:26:56.767Z,19.69
2017-10-25T12:27:56.817Z,19.76
2017-10-25T12:28:56.793Z,19.68
2017-10-25T12:29:56.820Z,19.73
2017-10-25T12:30:56.811Z,19.76
2017-10-25T12:31:56.821Z,19.83
2017-10-25T12:32:56.865Z,19.83
2017-10-25T12:33:56.868Z,19.88
2017-10-25T12:34:56.881Z,19.90
2017-10-25T12:35:56.865Z,19.94
2017-10-25T12:36:56.915Z,19.94
2017-10-25T12:37:56.918Z,20.03
2017-10-25T12:38:56.905Z,19.88
2017-10-25T12:39:56.897Z,19.83
2017-10-25T12:40:56.962Z,19.94
2017-10-25T12:41:56.933Z,19.87
2017-10-25T12:42:56.974Z,19.88
2017-10-25T12:43:56.944Z,19.72
2017-10-25T12:44:56.992Z,19.68
2017-10-25T12:45:56.981Z,19.75
2017-10-25T12:46:57.020Z,19.65
2017-10-25T12:47:57.060Z,19.58
2017-10-25T12:48:57.022Z,19.66
2017-10-25T12:49:57.051Z,19.63
2017-10-25T12:50:57.070Z,19.63
2017-10-25T12:51:57.078Z,19.54
2017-10-25T12:52:57.068Z,19.68